Airfield :
LOGIN :

Register | Disclaimer

   EN    FR    IT 

 










Legend :    VFR   Marginal VFR   IFR   Intensive IFR   Very Intensive IFR
Visi :
Ceiling :
>= 8 km
>= 3000ft
5 to 8 km
1000 to 3000 ft
1500m to 5 km
500 to 1000 ft
800 to 1500m
200 to 500 ft
< 800m
< 200 ft
Symbols :   Thunderstorms  Fog  Heavy snow  Heavy precipitations  Wind > 20 kt
SIGMETs :     Misc.  Thunderstorms  Icing  Turbulence  Mountain Waves  Volcanic Ashes







- Airport Elevation : 297 ft
- IATA code : UIP
- Download approach charts


LFRQ - Quimper Pluguffan

CURRENT METAR :
  • 241000Z AUTO 22008KT 180V260 9999 BKN023 OVC028 14/09 Q1020 NOSIG

EXPIRED METARs :
  • 240930Z AUTO 21004KT 160V250 9999 BKN019 OVC025 13/10 Q1020 NOSIG
  • 240900Z AUTO 23005KT 190V280 9999 BKN015 OVC021 13/09 Q1020 NOSIG
  • 240830Z AUTO 24006KT 210V270 9999 SCT015 OVC022 13/09 Q1020 NOSIG
  • 240800Z AUTO 25007KT 9999 BKN014 OVC023 13/10 Q1020 BECMG BKN018
  • 240730Z AUTO 24006KT 9999 BKN015 BKN020 OVC025 12/10 Q1021 TEMPO BKN012

TAF TAF LFRQ
Valid from the 24 at 06:00 until the 25 at 06:00 UTC


240500Z 2406/2506 22010KT 9999 BKN018
PROB30
TEMPO 2406/2409 BKN012
BECMG 2421/2424 OVC008
PROB30
TEMPO 2500/2506 4000 -RA BKN003
No reported NOTAMs for that airfield.



MET'MAP, your aeronautical weather chart ! - Copyright ORBIFLY December 2007 - Disclaimer

ORBIFLY MET'MAP TEAM :

Programming & Development : Alexandra Zaïnal
Concept & Development : Baudouin d'Aumeries
Co-Development & Prog : Marc-Olivier Méhu
Technical & hardware support : Manuel Goepfert

Contact : metmap@orbifly.com




SOURCES & CREDITS :

   NOAA